sensor_id;sensor_type;location;lat;lon;timestamp;P1;durP1;ratioP1;P2;durP2;ratioP2
8640;SDS011;4358;42.100;25.222;2023-07-13T00:00:09;11.10;;;8.40;;
8640;SDS011;4358;42.100;25.222;2023-07-13T00:02:36;8.93;;;7.60;;
8640;SDS011;4358;42.100;25.222;2023-07-13T00:05:05;9.20;;;7.53;;
8640;SDS011;4358;42.100;25.222;2023-07-13T00:07:33;9.53;;;7.53;;
8640;SDS011;4358;42.100;25.222;2023-07-13T00:09:59;9.80;;;8.00;;
8640;SDS011;4358;42.100;25.222;2023-07-13T00:12:27;8.87;;;7.97;;
8640;SDS011;4358;42.100;25.222;2023-07-13T00:14:56;15.13;;;8.40;;
8640;SDS011;4358;42.100;25.222;2023-07-13T00:17:23;9.17;;;8.27;;
8640;SDS011;4358;42.100;25.222;2023-07-13T00:19:50;10.67;;;9.27;;
8640;SDS011;4358;42.100;25.222;2023-07-13T00:22:19;10.13;;;9.13;;
8640;SDS011;4358;42.100;25.222;2023-07-13T00:24:46;10.47;;;8.60;;
8640;SDS011;4358;42.100;25.222;2023-07-13T00:27:13;12.07;;;8.70;;
8640;SDS011;4358;42.100;25.222;2023-07-13T00:29:40;8.90;;;8.07;;
8640;SDS011;4358;42.100;25.222;2023-07-13T00:32:08;11.03;;;8.20;;
8640;SDS011;4358;42.100;25.222;2023-07-13T00:34:36;10.70;;;8.17;;
8640;SDS011;4358;42.100;25.222;2023-07-13T00:37:03;10.53;;;8.37;;
8640;SDS011;4358;42.100;25.222;2023-07-13T00:39:34;10.40;;;8.73;;
8640;SDS011;4358;42.100;25.222;2023-07-13T00:42:01;11.60;;;8.57;;
8640;SDS011;4358;42.100;25.222;2023-07-13T00:44:29;13.53;;;9.47;;
8640;SDS011;4358;42.100;25.222;2023-07-13T00:46:56;9.40;;;8.50;;
8640;SDS011;4358;42.100;25.222;2023-07-13T00:49:24;10.50;;;8.87;;
8640;SDS011;4358;42.100;25.222;2023-07-13T00:51:54;12.00;;;8.60;;
8640;SDS011;4358;42.100;25.222;2023-07-13T00:54:23;9.23;;;8.30;;
8640;SDS011;4358;42.100;25.222;2023-07-13T00:56:53;14.87;;;9.20;;
8640;SDS011;4358;42.100;25.222;2023-07-13T00:59:24;9.67;;;8.77;;
8640;SDS011;4358;42.100;25.222;2023-07-13T01:01:51;10.40;;;9.37;;
8640;SDS011;4358;42.100;25.222;2023-07-13T01:04:19;11.40;;;9.53;;
8640;SDS011;4358;42.100;25.222;2023-07-13T01:06:46;11.77;;;9.60;;
8640;SDS011;4358;42.100;25.222;2023-07-13T01:09:13;13.87;;;11.50;;
8640;SDS011;4358;42.100;25.222;2023-07-13T01:11:41;12.90;;;11.47;;
8640;SDS011;4358;42.100;25.222;2023-07-13T01:14:11;19.10;;;15.23;;
8640;SDS011;4358;42.100;25.222;2023-07-13T01:16:39;18.93;;;15.20;;
8640;SDS011;4358;42.100;25.222;2023-07-13T01:19:10;19.63;;;15.53;;
8640;SDS011;4358;42.100;25.222;2023-07-13T01:21:49;17.67;;;14.70;;
8640;SDS011;4358;42.100;25.222;2023-07-13T01:24:16;17.00;;;14.97;;
8640;SDS011;4358;42.100;25.222;2023-07-13T01:26:43;23.97;;;19.10;;
8640;SDS011;4358;42.100;25.222;2023-07-13T01:29:10;25.00;;;21.53;;
8640;SDS011;4358;42.100;25.222;2023-07-13T01:31:37;25.57;;;19.50;;
8640;SDS011;4358;42.100;25.222;2023-07-13T01:34:04;20.57;;;17.60;;
8640;SDS011;4358;42.100;25.222;2023-07-13T01:36:31;22.93;;;16.20;;
8640;SDS011;4358;42.100;25.222;2023-07-13T01:38:59;19.63;;;15.20;;
8640;SDS011;4358;42.100;25.222;2023-07-13T01:41:26;19.87;;;14.00;;
8640;SDS011;4358;42.100;25.222;2023-07-13T01:43:53;22.37;;;17.07;;
8640;SDS011;4358;42.100;25.222;2023-07-13T01:46:20;29.97;;;21.83;;
8640;SDS011;4358;42.100;25.222;2023-07-13T01:48:47;28.00;;;23.37;;
8640;SDS011;4358;42.100;25.222;2023-07-13T01:51:15;22.77;;;19.30;;
8640;SDS011;4358;42.100;25.222;2023-07-13T01:53:42;18.10;;;15.63;;
8640;SDS011;4358;42.100;25.222;2023-07-13T01:56:10;10.90;;;9.63;;
8640;SDS011;4358;42.100;25.222;2023-07-13T01:58:37;10.23;;;9.23;;
8640;SDS011;4358;42.100;25.222;2023-07-13T02:01:03;17.57;;;11.43;;
8640;SDS011;4358;42.100;25.222;2023-07-13T02:03:30;13.37;;;11.93;;
8640;SDS011;4358;42.100;25.222;2023-07-13T02:05:57;19.73;;;15.90;;
8640;SDS011;4358;42.100;25.222;2023-07-13T02:08:24;33.47;;;22.33;;
8640;SDS011;4358;42.100;25.222;2023-07-13T02:10:50;13.70;;;10.93;;
8640;SDS011;4358;42.100;25.222;2023-07-13T02:13:19;15.07;;;12.53;;
8640;SDS011;4358;42.100;25.222;2023-07-13T02:15:45;21.40;;;15.87;;
8640;SDS011;4358;42.100;25.222;2023-07-13T02:18:12;20.57;;;15.43;;
8640;SDS011;4358;42.100;25.222;2023-07-13T02:20:42;19.67;;;16.40;;
8640;SDS011;4358;42.100;25.222;2023-07-13T02:23:09;25.10;;;18.40;;
8640;SDS011;4358;42.100;25.222;2023-07-13T02:25:36;17.47;;;14.40;;
8640;SDS011;4358;42.100;25.222;2023-07-13T02:28:03;9.97;;;8.97;;
8640;SDS011;4358;42.100;25.222;2023-07-13T02:30:31;10.80;;;9.27;;
8640;SDS011;4358;42.100;25.222;2023-07-13T02:32:58;10.50;;;9.43;;
8640;SDS011;4358;42.100;25.222;2023-07-13T02:35:25;10.20;;;9.00;;
8640;SDS011;4358;42.100;25.222;2023-07-13T02:37:52;9.60;;;8.70;;
8640;SDS011;4358;42.100;25.222;2023-07-13T02:40:19;11.80;;;9.43;;
8640;SDS011;4358;42.100;25.222;2023-07-13T02:42:46;10.27;;;8.83;;
8640;SDS011;4358;42.100;25.222;2023-07-13T02:45:12;11.60;;;9.70;;
8640;SDS011;4358;42.100;25.222;2023-07-13T02:47:41;15.00;;;9.77;;
8640;SDS011;4358;42.100;25.222;2023-07-13T02:50:08;10.33;;;8.33;;
8640;SDS011;4358;42.100;25.222;2023-07-13T02:52:35;10.67;;;9.57;;
8640;SDS011;4358;42.100;25.222;2023-07-13T02:55:02;11.13;;;8.87;;
8640;SDS011;4358;42.100;25.222;2023-07-13T02:57:29;19.37;;;9.50;;
8640;SDS011;4358;42.100;25.222;2023-07-13T02:59:58;13.20;;;8.77;;
8640;SDS011;4358;42.100;25.222;2023-07-13T03:02:25;10.73;;;9.37;;
8640;SDS011;4358;42.100;25.222;2023-07-13T03:04:54;11.97;;;10.67;;
8640;SDS011;4358;42.100;25.222;2023-07-13T03:07:21;15.90;;;13.07;;
8640;SDS011;4358;42.100;25.222;2023-07-13T03:09:48;15.33;;;11.83;;
8640;SDS011;4358;42.100;25.222;2023-07-13T03:12:15;13.23;;;11.43;;
8640;SDS011;4358;42.100;25.222;2023-07-13T03:14:42;12.90;;;9.90;;
8640;SDS011;4358;42.100;25.222;2023-07-13T03:17:09;11.93;;;10.07;;
8640;SDS011;4358;42.100;25.222;2023-07-13T03:19:35;16.53;;;10.17;;
8640;SDS011;4358;42.100;25.222;2023-07-13T03:22:04;10.20;;;9.20;;
8640;SDS011;4358;42.100;25.222;2023-07-13T03:24:32;12.93;;;9.77;;
8640;SDS011;4358;42.100;25.222;2023-07-13T03:27:00;11.67;;;10.20;;
8640;SDS011;4358;42.100;25.222;2023-07-13T03:29:27;10.40;;;8.60;;
8640;SDS011;4358;42.100;25.222;2023-07-13T03:31:54;14.40;;;10.13;;
8640;SDS011;4358;42.100;25.222;2023-07-13T03:34:21;11.20;;;9.90;;
8640;SDS011;4358;42.100;25.222;2023-07-13T03:36:48;11.70;;;9.50;;
8640;SDS011;4358;42.100;25.222;2023-07-13T03:39:16;10.23;;;8.87;;
8640;SDS011;4358;42.100;25.222;2023-07-13T03:41:43;14.07;;;10.13;;
8640;SDS011;4358;42.100;25.222;2023-07-13T03:44:10;14.47;;;10.47;;
8640;SDS011;4358;42.100;25.222;2023-07-13T03:46:38;18.00;;;12.03;;
8640;SDS011;4358;42.100;25.222;2023-07-13T03:49:05;16.40;;;13.03;;
8640;SDS011;4358;42.100;25.222;2023-07-13T03:51:32;18.43;;;12.27;;
8640;SDS011;4358;42.100;25.222;2023-07-13T03:53:59;14.03;;;10.97;;
8640;SDS011;4358;42.100;25.222;2023-07-13T03:56:27;14.00;;;11.57;;
8640;SDS011;4358;42.100;25.222;2023-07-13T03:58:55;17.47;;;13.73;;
8640;SDS011;4358;42.100;25.222;2023-07-13T04:01:23;21.57;;;14.97;;
8640;SDS011;4358;42.100;25.222;2023-07-13T04:03:51;17.50;;;14.40;;
8640;SDS011;4358;42.100;25.222;2023-07-13T04:06:19;15.27;;;12.33;;
8640;SDS011;4358;42.100;25.222;2023-07-13T04:08:49;13.70;;;10.97;;
8640;SDS011;4358;42.100;25.222;2023-07-13T04:11:19;13.27;;;11.23;;
8640;SDS011;4358;42.100;25.222;2023-07-13T04:13:48;15.37;;;12.13;;
8640;SDS011;4358;42.100;25.222;2023-07-13T04:16:15;17.00;;;11.53;;
8640;SDS011;4358;42.100;25.222;2023-07-13T04:18:44;18.93;;;11.77;;
8640;SDS011;4358;42.100;25.222;2023-07-13T04:21:11;15.03;;;11.80;;
8640;SDS011;4358;42.100;25.222;2023-07-13T04:23:39;14.40;;;12.00;;
8640;SDS011;4358;42.100;25.222;2023-07-13T04:26:06;14.97;;;11.97;;
8640;SDS011;4358;42.100;25.222;2023-07-13T04:28:34;18.10;;;13.03;;
8640;SDS011;4358;42.100;25.222;2023-07-13T04:31:02;14.67;;;11.37;;
8640;SDS011;4358;42.100;25.222;2023-07-13T04:33:29;15.77;;;13.37;;
8640;SDS011;4358;42.100;25.222;2023-07-13T04:35:56;14.63;;;12.93;;
8640;SDS011;4358;42.100;25.222;2023-07-13T04:38:23;16.13;;;14.43;;
8640;SDS011;4358;42.100;25.222;2023-07-13T04:40:53;21.87;;;16.97;;
8640;SDS011;4358;42.100;25.222;2023-07-13T04:43:21;19.73;;;15.83;;
8640;SDS011;4358;42.100;25.222;2023-07-13T04:45:48;13.17;;;10.40;;
8640;SDS011;4358;42.100;25.222;2023-07-13T04:48:16;15.40;;;10.53;;
8640;SDS011;4358;42.100;25.222;2023-07-13T04:50:43;10.17;;;9.03;;
8640;SDS011;4358;42.100;25.222;2023-07-13T04:53:09;10.03;;;9.03;;
8640;SDS011;4358;42.100;25.222;2023-07-13T04:55:36;12.23;;;8.80;;
8640;SDS011;4358;42.100;25.222;2023-07-13T04:58:03;10.20;;;9.10;;
8640;SDS011;4358;42.100;25.222;2023-07-13T05:00:30;10.47;;;9.47;;
8640;SDS011;4358;42.100;25.222;2023-07-13T05:02:58;15.00;;;9.87;;
8640;SDS011;4358;42.100;25.222;2023-07-13T05:05:26;10.23;;;9.23;;
8640;SDS011;4358;42.100;25.222;2023-07-13T05:07:53;16.63;;;9.87;;
8640;SDS011;4358;42.100;25.222;2023-07-13T05:10:20;11.47;;;9.80;;
8640;SDS011;4358;42.100;25.222;2023-07-13T05:12:48;13.33;;;10.67;;
8640;SDS011;4358;42.100;25.222;2023-07-13T05:15:14;10.70;;;9.33;;
8640;SDS011;4358;42.100;25.222;2023-07-13T05:17:46;12.30;;;10.17;;
8640;SDS011;4358;42.100;25.222;2023-07-13T05:20:13;11.63;;;10.43;;
8640;SDS011;4358;42.100;25.222;2023-07-13T05:22:41;13.07;;;10.33;;
8640;SDS011;4358;42.100;25.222;2023-07-13T05:25:09;11.87;;;10.57;;
8640;SDS011;4358;42.100;25.222;2023-07-13T05:27:36;12.27;;;10.37;;
8640;SDS011;4358;42.100;25.222;2023-07-13T05:30:03;13.77;;;10.47;;
8640;SDS011;4358;42.100;25.222;2023-07-13T05:32:31;11.20;;;10.10;;
8640;SDS011;4358;42.100;25.222;2023-07-13T05:34:58;12.23;;;10.47;;
8640;SDS011;4358;42.100;25.222;2023-07-13T05:37:24;11.20;;;10.10;;
8640;SDS011;4358;42.100;25.222;2023-07-13T05:39:53;11.77;;;10.60;;
8640;SDS011;4358;42.100;25.222;2023-07-13T05:42:19;12.43;;;9.97;;
8640;SDS011;4358;42.100;25.222;2023-07-13T05:44:46;13.77;;;11.30;;
8640;SDS011;4358;42.100;25.222;2023-07-13T05:47:13;11.10;;;10.10;;
8640;SDS011;4358;42.100;25.222;2023-07-13T05:49:40;11.70;;;10.60;;
8640;SDS011;4358;42.100;25.222;2023-07-13T05:52:07;13.97;;;10.23;;
8640;SDS011;4358;42.100;25.222;2023-07-13T05:54:34;16.00;;;10.53;;
8640;SDS011;4358;42.100;25.222;2023-07-13T05:57:03;11.10;;;9.67;;
8640;SDS011;4358;42.100;25.222;2023-07-13T05:59:30;13.60;;;11.33;;
8640;SDS011;4358;42.100;25.222;2023-07-13T06:01:57;13.83;;;11.80;;
8640;SDS011;4358;42.100;25.222;2023-07-13T06:04:24;12.63;;;10.20;;
8640;SDS011;4358;42.100;25.222;2023-07-13T06:06:51;11.73;;;10.70;;
8640;SDS011;4358;42.100;25.222;2023-07-13T06:09:18;12.70;;;10.57;;
8640;SDS011;4358;42.100;25.222;2023-07-13T06:11:44;15.63;;;10.80;;
8640;SDS011;4358;42.100;25.222;2023-07-13T06:14:12;11.98;;;10.32;;
8640;SDS011;4358;42.100;25.222;2023-07-13T06:16:39;11.85;;;9.13;;
8640;SDS011;4358;42.100;25.222;2023-07-13T06:19:07;10.85;;;9.35;;
8640;SDS011;4358;42.100;25.222;2023-07-13T06:21:33;13.68;;;9.88;;
8640;SDS011;4358;42.100;25.222;2023-07-13T06:24:01;10.90;;;9.80;;
8640;SDS011;4358;42.100;25.222;2023-07-13T06:26:28;12.80;;;10.02;;
8640;SDS011;4358;42.100;25.222;2023-07-13T06:28:55;11.02;;;9.95;;
8640;SDS011;4358;42.100;25.222;2023-07-13T06:31:23;11.15;;;10.05;;
8640;SDS011;4358;42.100;25.222;2023-07-13T06:33:50;11.07;;;9.93;;
8640;SDS011;4358;42.100;25.222;2023-07-13T06:36:16;10.38;;;9.40;;
8640;SDS011;4358;42.100;25.222;2023-07-13T06:38:44;10.82;;;9.73;;
8640;SDS011;4358;42.100;25.222;2023-07-13T06:41:11;10.13;;;9.13;;
8640;SDS011;4358;42.100;25.222;2023-07-13T06:43:37;10.35;;;9.10;;
8640;SDS011;4358;42.100;25.222;2023-07-13T06:46:04;10.05;;;8.93;;
8640;SDS011;4358;42.100;25.222;2023-07-13T06:48:32;10.45;;;9.35;;
8640;SDS011;4358;42.100;25.222;2023-07-13T06:50:59;10.38;;;9.25;;
8640;SDS011;4358;42.100;25.222;2023-07-13T06:53:27;10.48;;;9.48;;
8640;SDS011;4358;42.100;25.222;2023-07-13T06:55:54;9.40;;;8.55;;
8640;SDS011;4358;42.100;25.222;2023-07-13T06:58:21;10.65;;;9.60;;
8640;SDS011;4358;42.100;25.222;2023-07-13T07:00:50;9.77;;;8.88;;
8640;SDS011;4358;42.100;25.222;2023-07-13T07:03:17;14.02;;;9.68;;
8640;SDS011;4358;42.100;25.222;2023-07-13T07:05:46;10.70;;;8.68;;
8640;SDS011;4358;42.100;25.222;2023-07-13T07:08:12;8.95;;;8.07;;
8640;SDS011;4358;42.100;25.222;2023-07-13T07:10:40;12.18;;;8.65;;
8640;SDS011;4358;42.100;25.222;2023-07-13T07:13:07;11.02;;;8.55;;
8640;SDS011;4358;42.100;25.222;2023-07-13T07:15:34;11.25;;;9.00;;
8640;SDS011;4358;42.100;25.222;2023-07-13T07:18:01;9.10;;;8.20;;
8640;SDS011;4358;42.100;25.222;2023-07-13T07:20:28;10.02;;;9.07;;
8640;SDS011;4358;42.100;25.222;2023-07-13T07:22:57;9.32;;;8.45;;
8640;SDS011;4358;42.100;25.222;2023-07-13T07:25:24;10.23;;;9.20;;
8640;SDS011;4358;42.100;25.222;2023-07-13T07:27:50;10.23;;;9.13;;
8640;SDS011;4358;42.100;25.222;2023-07-13T07:30:17;9.77;;;8.77;;
8640;SDS011;4358;42.100;25.222;2023-07-13T07:32:44;11.43;;;9.50;;
8640;SDS011;4358;42.100;25.222;2023-07-13T07:35:11;9.77;;;8.88;;
8640;SDS011;4358;42.100;25.222;2023-07-13T07:37:38;9.80;;;8.65;;
8640;SDS011;4358;42.100;25.222;2023-07-13T07:40:07;12.20;;;8.18;;
8640;SDS011;4358;42.100;25.222;2023-07-13T07:42:34;8.98;;;8.18;;
8640;SDS011;4358;42.100;25.222;2023-07-13T07:45:01;8.98;;;8.18;;
8640;SDS011;4358;42.100;25.222;2023-07-13T07:47:28;7.97;;;7.18;;
8640;SDS011;4358;42.100;25.222;2023-07-13T07:49:55;9.50;;;7.78;;
8640;SDS011;4358;42.100;25.222;2023-07-13T07:52:22;11.18;;;7.57;;
8640;SDS011;4358;42.100;25.222;2023-07-13T07:54:49;8.95;;;8.02;;
8640;SDS011;4358;42.100;25.222;2023-07-13T07:57:17;8.15;;;7.32;;
8640;SDS011;4358;42.100;25.222;2023-07-13T07:59:44;8.90;;;6.80;;
8640;SDS011;4358;42.100;25.222;2023-07-13T08:02:11;8.70;;;7.60;;
8640;SDS011;4358;42.100;25.222;2023-07-13T08:04:38;10.23;;;7.50;;
8640;SDS011;4358;42.100;25.222;2023-07-13T08:07:05;9.75;;;7.35;;
8640;SDS011;4358;42.100;25.222;2023-07-13T08:09:32;11.35;;;8.35;;
8640;SDS011;4358;42.100;25.222;2023-07-13T08:11:58;8.50;;;7.70;;
8640;SDS011;4358;42.100;25.222;2023-07-13T08:14:27;10.05;;;8.25;;
8640;SDS011;4358;42.100;25.222;2023-07-13T08:16:54;8.85;;;8.05;;
8640;SDS011;4358;42.100;25.222;2023-07-13T08:19:21;10.35;;;7.82;;
8640;SDS011;4358;42.100;25.222;2023-07-13T08:21:48;9.25;;;7.85;;
8640;SDS011;4358;42.100;25.222;2023-07-13T08:24:15;8.40;;;7.60;;
8640;SDS011;4358;42.100;25.222;2023-07-13T08:26:43;9.05;;;8.25;;
8640;SDS011;4358;42.100;25.222;2023-07-13T08:29:11;8.68;;;7.88;;
8640;SDS011;4358;42.100;25.222;2023-07-13T08:31:39;9.05;;;8.20;;
8640;SDS011;4358;42.100;25.222;2023-07-13T08:34:06;10.32;;;9.32;;
8640;SDS011;4358;42.100;25.222;2023-07-13T08:36:33;11.07;;;8.90;;
8640;SDS011;4358;42.100;25.222;2023-07-13T08:39:00;11.20;;;8.80;;
8640;SDS011;4358;42.100;25.222;2023-07-13T08:41:27;9.20;;;8.30;;
8640;SDS011;4358;42.100;25.222;2023-07-13T08:43:56;10.23;;;8.90;;
8640;SDS011;4358;42.100;25.222;2023-07-13T08:46:25;9.50;;;8.70;;
8640;SDS011;4358;42.100;25.222;2023-07-13T08:48:57;11.73;;;8.25;;
8640;SDS011;4358;42.100;25.222;2023-07-13T08:51:30;8.90;;;8.00;;
8640;SDS011;4358;42.100;25.222;2023-07-13T08:54:04;9.45;;;7.85;;
8640;SDS011;4358;42.100;25.222;2023-07-13T08:56:37;9.63;;;8.73;;
8640;SDS011;4358;42.100;25.222;2023-07-13T08:59:06;10.27;;;8.50;;
8640;SDS011;4358;42.100;25.222;2023-07-13T09:01:54;9.75;;;7.75;;
8640;SDS011;4358;42.100;25.222;2023-07-13T09:04:37;7.95;;;7.25;;
8640;SDS011;4358;42.100;25.222;2023-07-13T09:07:11;9.07;;;7.88;;
8640;SDS011;4358;42.100;25.222;2023-07-13T09:09:47;9.52;;;7.47;;
8640;SDS011;4358;42.100;25.222;2023-07-13T09:12:24;7.93;;;7.05;;
8640;SDS011;4358;42.100;25.222;2023-07-13T09:14:58;7.70;;;6.93;;
8640;SDS011;4358;42.100;25.222;2023-07-13T09:17:32;11.88;;;7.60;;
8640;SDS011;4358;42.100;25.222;2023-07-13T09:20:04;12.88;;;8.50;;
8640;SDS011;4358;42.100;25.222;2023-07-13T09:22:40;8.45;;;7.28;;
8640;SDS011;4358;42.100;25.222;2023-07-13T09:25:12;11.23;;;7.72;;
8640;SDS011;4358;42.100;25.222;2023-07-13T09:27:49;10.02;;;7.75;;
8640;SDS011;4358;42.100;25.222;2023-07-13T09:30:23;8.77;;;7.90;;
8640;SDS011;4358;42.100;25.222;2023-07-13T09:32:57;8.30;;;7.50;;
8640;SDS011;4358;42.100;25.222;2023-07-13T09:35:26;9.23;;;8.00;;
8640;SDS011;4358;42.100;25.222;2023-07-13T09:37:57;8.90;;;8.02;;
8640;SDS011;4358;42.100;25.222;2023-07-13T09:40:27;8.40;;;7.53;;
8640;SDS011;4358;42.100;25.222;2023-07-13T09:43:03;8.15;;;7.25;;
8640;SDS011;4358;42.100;25.222;2023-07-13T09:45:32;12.40;;;7.43;;
8640;SDS011;4358;42.100;25.222;2023-07-13T09:48:03;11.52;;;7.35;;
8640;SDS011;4358;42.100;25.222;2023-07-13T09:50:32;8.38;;;7.43;;
8640;SDS011;4358;42.100;25.222;2023-07-13T09:53:00;8.32;;;7.57;;
8640;SDS011;4358;42.100;25.222;2023-07-13T09:55:30;7.85;;;7.05;;
8640;SDS011;4358;42.100;25.222;2023-07-13T09:58:02;8.77;;;6.80;;
8640;SDS011;4358;42.100;25.222;2023-07-13T10:00:30;7.32;;;6.53;;
8640;SDS011;4358;42.100;25.222;2023-07-13T10:02:58;9.60;;;6.60;;
8640;SDS011;4358;42.100;25.222;2023-07-13T10:05:26;7.50;;;5.95;;
8640;SDS011;4358;42.100;25.222;2023-07-13T10:07:55;7.15;;;6.45;;
8640;SDS011;4358;42.100;25.222;2023-07-13T10:10:23;8.98;;;6.28;;
8640;SDS011;4358;42.100;25.222;2023-07-13T10:12:49;7.55;;;6.40;;
8640;SDS011;4358;42.100;25.222;2023-07-13T10:15:18;9.00;;;6.53;;
8640;SDS011;4358;42.100;25.222;2023-07-13T10:17:47;7.75;;;5.78;;
8640;SDS011;4358;42.100;25.222;2023-07-13T10:20:14;5.97;;;5.47;;
8640;SDS011;4358;42.100;25.222;2023-07-13T10:22:43;7.60;;;6.10;;
8640;SDS011;4358;42.100;25.222;2023-07-13T10:25:15;7.57;;;6.38;;
8640;SDS011;4358;42.100;25.222;2023-07-13T10:27:44;6.68;;;6.07;;
8640;SDS011;4358;42.100;25.222;2023-07-13T10:30:14;6.75;;;6.03;;
8640;SDS011;4358;42.100;25.222;2023-07-13T10:32:45;7.15;;;6.18;;
8640;SDS011;4358;42.100;25.222;2023-07-13T10:35:14;6.80;;;6.20;;
8640;SDS011;4358;42.100;25.222;2023-07-13T10:37:44;6.75;;;5.93;;
8640;SDS011;4358;42.100;25.222;2023-07-13T10:40:18;6.47;;;5.88;;
8640;SDS011;4358;42.100;25.222;2023-07-13T10:42:49;6.43;;;5.88;;
8640;SDS011;4358;42.100;25.222;2023-07-13T10:45:21;6.10;;;5.57;;
8640;SDS011;4358;42.100;25.222;2023-07-13T10:47:50;6.75;;;5.30;;
8640;SDS011;4358;42.100;25.222;2023-07-13T10:50:22;5.95;;;5.45;;
8640;SDS011;4358;42.100;25.222;2023-07-13T10:52:51;6.32;;;5.60;;
8640;SDS011;4358;42.100;25.222;2023-07-13T10:55:38;7.07;;;5.80;;
8640;SDS011;4358;42.100;25.222;2023-07-13T10:58:12;6.40;;;5.53;;
8640;SDS011;4358;42.100;25.222;2023-07-13T11:00:46;5.60;;;5.10;;
8640;SDS011;4358;42.100;25.222;2023-07-13T11:03:16;7.03;;;5.00;;
8640;SDS011;4358;42.100;25.222;2023-07-13T11:05:47;5.25;;;4.60;;
8640;SDS011;4358;42.100;25.222;2023-07-13T11:08:19;5.50;;;4.78;;
8640;SDS011;4358;42.100;25.222;2023-07-13T11:10:53;9.25;;;5.10;;
8640;SDS011;4358;42.100;25.222;2023-07-13T11:13:38;8.02;;;5.30;;
8640;SDS011;4358;42.100;25.222;2023-07-13T11:16:33;5.00;;;4.50;;
8640;SDS011;4358;42.100;25.222;2023-07-13T11:19:24;5.00;;;4.60;;
8640;SDS011;4358;42.100;25.222;2023-07-13T11:22:10;7.65;;;4.50;;
8640;SDS011;4358;42.100;25.222;2023-07-13T11:24:58;5.10;;;4.60;;
8640;SDS011;4358;42.100;25.222;2023-07-13T11:27:39;8.13;;;5.03;;
8640;SDS011;4358;42.100;25.222;2023-07-13T11:30:13;6.43;;;5.10;;
8640;SDS011;4358;42.100;25.222;2023-07-13T11:32:49;5.05;;;4.55;;
8640;SDS011;4358;42.100;25.222;2023-07-13T11:35:19;5.05;;;4.60;;
8640;SDS011;4358;42.100;25.222;2023-07-13T11:37:49;5.28;;;4.78;;
8640;SDS011;4358;42.100;25.222;2023-07-13T11:40:17;6.07;;;4.65;;
8640;SDS011;4358;42.100;25.222;2023-07-13T11:42:46;6.60;;;4.85;;
8640;SDS011;4358;42.100;25.222;2023-07-13T11:45:18;8.90;;;4.70;;
8640;SDS011;4358;42.100;25.222;2023-07-13T11:47:48;8.98;;;4.30;;
8640;SDS011;4358;42.100;25.222;2023-07-13T11:50:19;4.68;;;4.28;;
8640;SDS011;4358;42.100;25.222;2023-07-13T11:52:47;4.72;;;4.32;;
8640;SDS011;4358;42.100;25.222;2023-07-13T11:55:16;5.20;;;4.70;;
8640;SDS011;4358;42.100;25.222;2023-07-13T11:57:48;7.07;;;5.13;;
8640;SDS011;4358;42.100;25.222;2023-07-13T12:00:18;8.57;;;4.38;;
8640;SDS011;4358;42.100;25.222;2023-07-13T12:02:52;5.15;;;4.38;;
8640;SDS011;4358;42.100;25.222;2023-07-13T12:05:21;5.40;;;4.80;;
8640;SDS011;4358;42.100;25.222;2023-07-13T12:07:48;5.28;;;4.78;;
8640;SDS011;4358;42.100;25.222;2023-07-13T12:10:20;7.03;;;4.78;;
8640;SDS011;4358;42.100;25.222;2023-07-13T12:12:51;5.20;;;4.70;;
8640;SDS011;4358;42.100;25.222;2023-07-13T12:15:19;4.90;;;4.50;;
8640;SDS011;4358;42.100;25.222;2023-07-13T12:17:47;5.47;;;4.78;;
8640;SDS011;4358;42.100;25.222;2023-07-13T12:20:20;6.43;;;4.82;;
8640;SDS011;4358;42.100;25.222;2023-07-13T12:22:49;11.48;;;4.38;;
8640;SDS011;4358;42.100;25.222;2023-07-13T12:25:17;3.50;;;3.20;;
8640;SDS011;4358;42.100;25.222;2023-07-13T12:27:50;5.47;;;3.67;;
8640;SDS011;4358;42.100;25.222;2023-07-13T12:30:25;4.43;;;3.30;;
8640;SDS011;4358;42.100;25.222;2023-07-13T12:32:55;6.82;;;3.60;;
8640;SDS011;4358;42.100;25.222;2023-07-13T12:35:23;7.32;;;3.90;;
8640;SDS011;4358;42.100;25.222;2023-07-13T12:37:51;8.20;;;3.88;;
8640;SDS011;4358;42.100;25.222;2023-07-13T12:40:19;8.98;;;3.90;;
8640;SDS011;4358;42.100;25.222;2023-07-13T12:42:49;5.97;;;3.85;;
8640;SDS011;4358;42.100;25.222;2023-07-13T12:45:19;5.13;;;3.95;;
8640;SDS011;4358;42.100;25.222;2023-07-13T12:47:49;5.57;;;3.88;;
8640;SDS011;4358;42.100;25.222;2023-07-13T12:50:20;4.60;;;4.07;;
8640;SDS011;4358;42.100;25.222;2023-07-13T12:52:50;4.47;;;3.80;;
8640;SDS011;4358;42.100;25.222;2023-07-13T12:55:19;6.20;;;4.40;;
8640;SDS011;4358;42.100;25.222;2023-07-13T12:57:50;7.63;;;4.22;;
8640;SDS011;4358;42.100;25.222;2023-07-13T13:00:20;6.40;;;4.13;;
8640;SDS011;4358;42.100;25.222;2023-07-13T13:02:50;5.95;;;4.30;;
8640;SDS011;4358;42.100;25.222;2023-07-13T13:05:18;5.55;;;3.88;;
8640;SDS011;4358;42.100;25.222;2023-07-13T13:07:48;7.60;;;4.75;;
8640;SDS011;4358;42.100;25.222;2023-07-13T13:10:15;5.13;;;4.15;;
8640;SDS011;4358;42.100;25.222;2023-07-13T13:12:42;4.60;;;4.00;;
8640;SDS011;4358;42.100;25.222;2023-07-13T13:15:11;7.95;;;4.13;;
8640;SDS011;4358;42.100;25.222;2023-07-13T13:17:38;7.35;;;4.10;;
8640;SDS011;4358;42.100;25.222;2023-07-13T13:20:11;4.97;;;4.50;;
8640;SDS011;4358;42.100;25.222;2023-07-13T13:22:41;6.95;;;4.47;;
8640;SDS011;4358;42.100;25.222;2023-07-13T13:25:09;8.27;;;4.38;;
8640;SDS011;4358;42.100;25.222;2023-07-13T13:27:37;5.43;;;4.13;;
8640;SDS011;4358;42.100;25.222;2023-07-13T13:30:09;5.13;;;3.97;;
8640;SDS011;4358;42.100;25.222;2023-07-13T13:32:39;7.38;;;4.10;;
8640;SDS011;4358;42.100;25.222;2023-07-13T13:35:08;6.90;;;4.00;;
8640;SDS011;4358;42.100;25.222;2023-07-13T13:37:39;6.45;;;4.05;;
8640;SDS011;4358;42.100;25.222;2023-07-13T13:40:13;6.97;;;4.93;;
8640;SDS011;4358;42.100;25.222;2023-07-13T13:42:41;7.95;;;4.50;;
8640;SDS011;4358;42.100;25.222;2023-07-13T13:45:09;6.22;;;4.45;;
8640;SDS011;4358;42.100;25.222;2023-07-13T13:47:39;6.18;;;5.00;;
8640;SDS011;4358;42.100;25.222;2023-07-13T13:50:11;7.63;;;4.65;;
8640;SDS011;4358;42.100;25.222;2023-07-13T13:52:39;5.80;;;4.28;;
8640;SDS011;4358;42.100;25.222;2023-07-13T13:55:11;7.18;;;4.22;;
8640;SDS011;4358;42.100;25.222;2023-07-13T13:57:38;7.00;;;4.82;;
8640;SDS011;4358;42.100;25.222;2023-07-13T14:00:06;7.72;;;4.65;;
8640;SDS011;4358;42.100;25.222;2023-07-13T14:02:37;12.60;;;5.10;;
8640;SDS011;4358;42.100;25.222;2023-07-13T14:05:05;7.68;;;4.85;;
8640;SDS011;4358;42.100;25.222;2023-07-13T14:07:36;10.23;;;4.63;;
8640;SDS011;4358;42.100;25.222;2023-07-13T14:10:08;9.27;;;5.00;;
8640;SDS011;4358;42.100;25.222;2023-07-13T14:12:40;8.27;;;4.90;;
8640;SDS011;4358;42.100;25.222;2023-07-13T14:15:09;7.93;;;4.18;;
8640;SDS011;4358;42.100;25.222;2023-07-13T14:17:45;9.30;;;5.03;;
8640;SDS011;4358;42.100;25.222;2023-07-13T14:20:15;6.60;;;4.72;;
8640;SDS011;4358;42.100;25.222;2023-07-13T14:22:42;10.85;;;4.68;;
8640;SDS011;4358;42.100;25.222;2023-07-13T14:25:10;12.52;;;4.85;;
8640;SDS011;4358;42.100;25.222;2023-07-13T14:27:38;5.57;;;5.05;;
8640;SDS011;4358;42.100;25.222;2023-07-13T14:30:08;11.65;;;4.75;;
8640;SDS011;4358;42.100;25.222;2023-07-13T14:32:39;11.25;;;4.50;;
8640;SDS011;4358;42.100;25.222;2023-07-13T14:35:07;8.63;;;5.22;;
8640;SDS011;4358;42.100;25.222;2023-07-13T14:37:36;8.60;;;4.25;;
8640;SDS011;4358;42.100;25.222;2023-07-13T14:40:08;6.70;;;4.43;;
8640;SDS011;4358;42.100;25.222;2023-07-13T14:42:38;11.70;;;4.70;;
8640;SDS011;4358;42.100;25.222;2023-07-13T14:45:05;12.13;;;7.00;;
8640;SDS011;4358;42.100;25.222;2023-07-13T14:47:38;7.95;;;4.38;;
8640;SDS011;4358;42.100;25.222;2023-07-13T14:50:07;8.35;;;4.57;;
8640;SDS011;4358;42.100;25.222;2023-07-13T14:52:39;9.80;;;5.07;;
8640;SDS011;4358;42.100;25.222;2023-07-13T14:55:08;8.25;;;5.03;;
8640;SDS011;4358;42.100;25.222;2023-07-13T14:57:36;6.20;;;4.38;;
8640;SDS011;4358;42.100;25.222;2023-07-13T15:00:03;8.73;;;4.80;;